createdAt,value
2023-02-01T00:01:30.799Z,7.05
2023-02-01T00:03:58.210Z,6.90
2023-02-01T00:06:26.156Z,8.13
2023-02-01T00:09:06.799Z,4.55
2023-02-01T00:11:43.370Z,5.95
2023-02-01T00:14:18.289Z,6.10
2023-02-01T00:20:17.831Z,5.55
2023-02-01T00:22:45.235Z,7.97
2023-02-01T00:25:12.812Z,6.55
2023-02-01T00:27:40.366Z,6.28
2023-02-01T00:30:10.831Z,6.20
2023-02-01T00:32:38.735Z,5.15
2023-02-01T00:35:08.538Z,5.70
2023-02-01T00:37:38.974Z,6.63
2023-02-01T00:40:08.018Z,5.30
2023-02-01T00:42:35.318Z,5.45
2023-02-01T00:45:02.907Z,7.32
2023-02-01T00:47:31.844Z,5.57
2023-02-01T00:49:59.551Z,8.05
2023-02-01T00:52:27.398Z,4.32
2023-02-01T00:54:54.881Z,5.85
2023-02-01T00:57:22.370Z,3.72
2023-02-01T00:59:49.705Z,5.40
2023-02-01T01:02:17.375Z,7.68
2023-02-01T01:04:45.252Z,6.80
2023-02-01T01:07:24.666Z,7.82
2023-02-01T01:09:52.069Z,5.38
2023-02-01T01:12:43.896Z,6.88
2023-02-01T01:15:17.475Z,4.80
2023-02-01T01:17:44.923Z,7.70
2023-02-01T01:20:13.207Z,6.80
2023-02-01T01:23:01.764Z,5.53
2023-02-01T01:25:29.781Z,5.78
2023-02-01T01:27:57.302Z,6.55
2023-02-01T01:30:25.156Z,8.20
2023-02-01T01:32:57.090Z,5.47
2023-02-01T01:35:41.434Z,7.53
2023-02-01T01:38:21.604Z,11.32
2023-02-01T01:40:52.588Z,5.18
2023-02-01T01:43:42.342Z,7.60
2023-02-01T01:46:09.944Z,8.43
2023-02-01T01:48:41.510Z,7.57
2023-02-01T01:52:01.255Z,7.22
2023-02-01T01:54:58.465Z,8.13
2023-02-01T01:57:33.198Z,8.82
2023-02-01T02:03:16.360Z,8.27
2023-02-01T02:05:44.853Z,8.27
2023-02-01T02:08:12.714Z,7.32
2023-02-01T02:11:30.013Z,6.65
2023-02-01T02:13:57.899Z,10.30
2023-02-01T02:16:47.415Z,8.32
2023-02-01T02:19:42.294Z,8.13
2023-02-01T02:22:37.065Z,7.57
2023-02-01T02:25:32.030Z,8.77
2023-02-01T02:28:14.136Z,6.65
2023-02-01T02:30:57.141Z,9.15
2023-02-01T02:33:33.057Z,9.85
2023-02-01T02:36:57.242Z,7.10
2023-02-01T02:39:51.763Z,6.85
2023-02-01T02:42:59.432Z,7.70
2023-02-01T02:46:09.838Z,7.10
2023-02-01T02:49:06.483Z,7.05
2023-02-01T02:51:56.295Z,5.60
2023-02-01T02:58:14.594Z,5.60
2023-02-01T03:01:01.998Z,4.38
2023-02-01T03:03:47.904Z,5.53
2023-02-01T03:06:37.080Z,6.22
2023-02-01T03:09:09.781Z,6.50
2023-02-01T03:11:57.299Z,6.60
2023-02-01T03:17:43.840Z,4.93
2023-02-01T03:20:21.923Z,4.70
2023-02-01T03:23:01.328Z,5.70
2023-02-01T03:28:29.476Z,6.50
2023-02-01T03:30:56.894Z,4.68
2023-02-01T03:33:27.656Z,6.40
2023-02-01T03:36:34.073Z,5.53
2023-02-01T03:39:20.051Z,6.80
2023-02-01T03:41:58.199Z,6.40
2023-02-01T03:44:45.493Z,6.30
2023-02-01T03:47:24.388Z,6.40
2023-02-01T03:50:01.273Z,4.50
2023-02-01T03:52:42.170Z,6.30
2023-02-01T03:55:12.098Z,6.03
2023-02-01T03:57:47.414Z,5.18
2023-02-01T04:00:23.049Z,6.10
2023-02-01T04:02:58.004Z,7.40
2023-02-01T04:05:32.025Z,6.25
2023-02-01T04:08:02.433Z,5.82
2023-02-01T04:10:29.912Z,7.30
2023-02-01T04:12:57.577Z,7.97
2023-02-01T04:18:40.453Z,8.60
2023-02-01T04:21:07.837Z,6.70
2023-02-01T04:23:35.336Z,6.65
2023-02-01T04:26:12.646Z,6.50
2023-02-01T04:29:30.437Z,5.88
2023-02-01T04:31:57.954Z,7.47
2023-02-01T04:34:25.963Z,10.70
2023-02-01T04:37:03.667Z,7.72
2023-02-01T04:39:39.047Z,6.55
2023-02-01T04:42:12.440Z,8.00
2023-02-01T04:44:42.847Z,7.13
2023-02-01T04:47:19.224Z,9.65
2023-02-01T04:49:56.894Z,6.30
2023-02-01T04:52:49.122Z,7.80
2023-02-01T04:58:07.535Z,7.32
2023-02-01T05:01:02.251Z,8.32
2023-02-01T05:03:30.305Z,8.93
2023-02-01T05:05:57.820Z,8.18
2023-02-01T05:08:26.344Z,5.30
2023-02-01T05:11:09.940Z,7.10
2023-02-01T05:16:58.620Z,10.23
2023-02-01T05:19:26.176Z,8.00
2023-02-01T05:22:14.207Z,9.85
2023-02-01T05:24:45.724Z,9.45
2023-02-01T05:27:13.249Z,7.18
2023-02-01T05:29:40.718Z,5.97
2023-02-01T05:32:56.263Z,5.70
2023-02-01T05:35:30.525Z,7.68
2023-02-01T05:38:00.919Z,5.97
2023-02-01T05:40:41.570Z,4.93
2023-02-01T05:43:15.866Z,5.88
2023-02-01T05:45:44.047Z,5.75
2023-02-01T05:48:11.572Z,4.80
2023-02-01T05:50:39.718Z,5.75
2023-02-01T05:53:16.585Z,5.15
2023-02-01T05:55:57.754Z,7.00
2023-02-01T05:58:26.020Z,6.55
2023-02-01T06:01:00.910Z,6.25
2023-02-01T06:03:28.939Z,5.57
2023-02-01T06:06:01.553Z,7.43
2023-02-01T06:08:29.304Z,7.00
2023-02-01T06:11:05.114Z,6.25
2023-02-01T06:13:34.678Z,6.18
2023-02-01T06:16:21.519Z,4.82
2023-02-01T06:18:49.793Z,7.10
2023-02-01T06:21:24.859Z,7.28
2023-02-01T06:24:22.968Z,10.55
2023-02-01T06:26:50.708Z,5.93
2023-02-01T06:32:27.506Z,6.40
2023-02-01T06:34:55.438Z,7.50
2023-02-01T06:37:32.705Z,5.40
2023-02-01T06:40:09.767Z,6.30
2023-02-01T06:42:37.282Z,7.55
2023-02-01T06:45:05.186Z,6.63
2023-02-01T06:47:32.812Z,6.75
2023-02-01T06:50:00.171Z,5.47
2023-02-01T06:52:27.634Z,7.28
2023-02-01T06:55:33.481Z,8.80
2023-02-01T07:00:44.604Z,7.45
2023-02-01T07:03:11.977Z,6.65
2023-02-01T07:05:39.340Z,12.38
2023-02-01T07:08:06.667Z,7.30
2023-02-01T07:10:35.173Z,7.13
2023-02-01T07:13:02.589Z,7.55
2023-02-01T07:15:30.021Z,7.25
2023-02-01T07:17:58.172Z,6.82
2023-02-01T07:20:26.141Z,8.57
2023-02-01T07:22:58.090Z,6.93
2023-02-01T07:25:26.075Z,6.75
2023-02-01T07:27:53.547Z,10.73
2023-02-01T07:30:21.440Z,6.72
2023-02-01T07:32:49.024Z,8.48
2023-02-01T07:35:16.515Z,7.88
2023-02-01T07:37:43.963Z,7.85
2023-02-01T07:40:12.409Z,5.57
2023-02-01T07:42:39.730Z,8.32
2023-02-01T07:45:20.231Z,8.30
2023-02-01T07:47:49.091Z,8.70
2023-02-01T07:50:16.939Z,7.95
2023-02-01T07:52:44.234Z,7.35
2023-02-01T07:55:12.031Z,6.90
2023-02-01T07:57:46.915Z,9.25
2023-02-01T08:00:33.594Z,8.30
2023-02-01T08:03:01.299Z,8.93
2023-02-01T08:05:29.883Z,7.60
2023-02-01T08:07:57.585Z,6.72
2023-02-01T08:10:25.296Z,6.55
2023-02-01T08:12:53.056Z,6.43
2023-02-01T08:15:20.512Z,7.32
2023-02-01T08:17:52.056Z,4.93
2023-02-01T08:20:23.522Z,5.65
2023-02-01T08:22:54.520Z,6.43
2023-02-01T08:25:22.970Z,5.65
2023-02-01T08:27:51.019Z,7.10
2023-02-01T08:30:18.697Z,5.45
2023-02-01T08:32:46.202Z,6.90
2023-02-01T08:35:13.575Z,5.70
2023-02-01T08:37:41.269Z,5.05
2023-02-01T08:40:12.368Z,5.35
2023-02-01T08:42:51.842Z,6.38
2023-02-01T08:45:24.970Z,6.43
2023-02-01T08:47:53.733Z,6.97
2023-02-01T08:50:22.653Z,5.53
2023-02-01T08:52:50.384Z,5.38
2023-02-01T08:55:18.141Z,6.50
2023-02-01T08:57:46.084Z,6.65
2023-02-01T09:00:16.966Z,5.97
2023-02-01T09:02:45.314Z,7.80
2023-02-01T09:05:15.002Z,6.13
2023-02-01T09:07:42.644Z,7.30
2023-02-01T09:10:10.962Z,8.98
2023-02-01T09:12:53.207Z,6.75
2023-02-01T09:15:20.821Z,7.53
2023-02-01T09:17:48.365Z,10.55
2023-02-01T09:20:16.077Z,6.25
2023-02-01T09:22:48.374Z,6.78
2023-02-01T09:25:16.180Z,7.10
2023-02-01T09:27:43.731Z,6.72
2023-02-01T09:30:11.884Z,5.03
2023-02-01T09:32:39.319Z,5.97
2023-02-01T09:35:07.105Z,5.55
2023-02-01T09:37:34.559Z,7.40
2023-02-01T09:40:01.841Z,6.28
2023-02-01T09:42:47.986Z,9.02
2023-02-01T09:45:34.287Z,7.65
2023-02-01T09:48:13.298Z,5.38
2023-02-01T09:50:46.833Z,5.28
2023-02-01T09:53:30.428Z,7.15
2023-02-01T09:56:05.475Z,6.00
2023-02-01T09:58:39.393Z,8.02
2023-02-01T10:01:18.092Z,6.75
2023-02-01T10:03:46.292Z,6.32
2023-02-01T10:06:45.846Z,7.32
2023-02-01T10:09:24.537Z,7.43
2023-02-01T10:11:51.934Z,9.15
2023-02-01T10:14:43.734Z,9.45
2023-02-01T10:17:45.111Z,6.95
2023-02-01T10:20:19.848Z,7.80
2023-02-01T10:23:22.704Z,7.25
2023-02-01T10:25:57.322Z,4.70
2023-02-01T10:28:27.716Z,8.48
2023-02-01T10:30:59.709Z,7.60
2023-02-01T10:33:48.217Z,8.05
2023-02-01T10:36:31.164Z,8.82
2023-02-01T10:39:03.586Z,7.03
2023-02-01T10:41:41.592Z,9.10
2023-02-01T10:44:26.371Z,10.10
2023-02-01T10:46:54.091Z,8.88
2023-02-01T10:49:39.034Z,7.45
2023-02-01T10:52:29.925Z,10.05
2023-02-01T10:55:18.697Z,8.88
2023-02-01T10:57:58.072Z,7.28
2023-02-01T11:00:26.222Z,6.88
2023-02-01T11:02:58.532Z,5.38
2023-02-01T11:05:27.472Z,8.45
2023-02-01T11:07:56.491Z,7.20
2023-02-01T11:10:43.735Z,6.97
2023-02-01T11:13:22.749Z,9.98
2023-02-01T11:15:57.463Z,9.65
2023-02-01T11:20:57.031Z,6.32
2023-02-01T11:23:27.770Z,9.43
2023-02-01T11:26:01.169Z,9.23
2023-02-01T11:28:33.432Z,7.63
2023-02-01T11:31:15.181Z,9.05
2023-02-01T11:34:00.391Z,7.30
2023-02-01T11:39:12.038Z,8.13
2023-02-01T11:42:00.530Z,10.68
2023-02-01T11:44:38.063Z,8.75
2023-02-01T11:47:40.247Z,6.78
2023-02-01T11:50:19.701Z,9.18
2023-02-01T11:53:15.637Z,5.80
2023-02-01T11:55:43.037Z,5.43
2023-02-01T11:58:58.089Z,6.82
2023-02-01T12:01:39.830Z,4.32
2023-02-01T12:04:28.272Z,6.32
2023-02-01T12:06:57.906Z,6.03
2023-02-01T12:09:39.285Z,6.90
2023-02-01T12:12:45.303Z,6.10
2023-02-01T12:15:36.204Z,8.32
2023-02-01T12:18:42.405Z,8.25
2023-02-01T12:22:04.301Z,6.95
2023-02-01T12:24:56.163Z,6.20
2023-02-01T12:27:41.232Z,6.13
2023-02-01T12:33:18.893Z,5.50
2023-02-01T12:36:21.484Z,6.75
2023-02-01T12:38:56.782Z,5.75
2023-02-01T12:41:50.919Z,7.57
2023-02-01T12:44:41.013Z,5.60
2023-02-01T12:47:41.590Z,6.65
2023-02-01T12:50:48.671Z,5.43
2023-02-01T12:53:24.890Z,6.03
2023-02-01T12:56:01.256Z,7.90
2023-02-01T12:58:44.963Z,6.78
2023-02-01T13:01:41.365Z,6.55
2023-02-01T13:04:39.400Z,6.72
2023-02-01T13:07:20.224Z,6.28
2023-02-01T13:09:53.470Z,7.82
2023-02-01T13:12:31.690Z,7.50
2023-02-01T13:15:04.772Z,7.68
2023-02-01T13:18:01.757Z,7.18
2023-02-01T13:20:49.155Z,5.47
2023-02-01T13:23:27.216Z,7.07
2023-02-01T13:25:55.862Z,5.20
2023-02-01T13:28:45.497Z,5.88
2023-02-01T13:31:22.797Z,8.48
2023-02-01T13:33:56.940Z,5.50
2023-02-01T13:36:42.786Z,10.43
2023-02-01T13:39:35.727Z,7.40
2023-02-01T13:42:23.722Z,8.32
2023-02-01T13:44:58.782Z,9.98
2023-02-01T13:47:32.194Z,9.02
2023-02-01T13:50:11.408Z,9.98
2023-02-01T13:52:43.383Z,10.32
2023-02-01T13:55:26.310Z,9.02
2023-02-01T13:58:04.169Z,10.77
2023-02-01T14:00:38.577Z,10.13
2023-02-01T14:03:13.085Z,10.57
2023-02-01T14:05:50.637Z,10.73
2023-02-01T14:08:38.430Z,8.02
2023-02-01T14:11:06.481Z,6.35
2023-02-01T14:13:42.257Z,7.18
2023-02-01T14:16:37.380Z,7.78
2023-02-01T14:19:32.600Z,7.72
2023-02-01T14:22:25.316Z,10.73
2023-02-01T14:24:56.036Z,9.90
2023-02-01T14:27:26.414Z,7.82
2023-02-01T14:30:00.749Z,14.82
2023-02-01T14:32:41.854Z,9.38
2023-02-01T14:35:26.923Z,8.75
2023-02-01T14:40:29.748Z,9.85
2023-02-01T14:42:58.348Z,7.65
2023-02-01T14:45:29.471Z,7.72
2023-02-01T14:48:06.042Z,8.95
2023-02-01T14:50:41.616Z,7.38
2023-02-01T14:53:17.163Z,9.65
2023-02-01T14:55:49.409Z,8.30
2023-02-01T14:58:55.289Z,6.13
2023-02-01T15:01:27.752Z,9.68
2023-02-01T15:04:04.565Z,9.30
2023-02-01T15:06:41.482Z,8.48
2023-02-01T15:09:18.010Z,8.30
2023-02-01T15:12:12.563Z,7.88
2023-02-01T15:14:50.324Z,8.23
2023-02-01T15:17:24.095Z,10.55
2023-02-01T15:20:01.031Z,6.93
2023-02-01T15:22:31.064Z,10.80
2023-02-01T15:25:00.703Z,8.32
2023-02-01T15:27:29.780Z,8.15
2023-02-01T15:30:26.303Z,6.65
2023-02-01T15:33:07.953Z,8.10
2023-02-01T15:35:44.829Z,7.38
2023-02-01T15:38:32.187Z,7.03
2023-02-01T15:41:22.872Z,6.32
2023-02-01T15:43:56.370Z,5.35
2023-02-01T15:46:27.787Z,6.57
2023-02-01T15:48:56.517Z,4.68
2023-02-01T15:51:27.240Z,6.53
2023-02-01T15:53:59.708Z,6.38
2023-02-01T15:56:32.323Z,6.30
2023-02-01T15:59:03.225Z,6.72
2023-02-01T16:01:31.288Z,6.82
2023-02-01T16:04:15.350Z,6.93
2023-02-01T16:06:53.083Z,4.88
2023-02-01T16:09:29.580Z,5.45
2023-02-01T16:12:04.831Z,7.93
2023-02-01T16:14:33.371Z,6.50
2023-02-01T16:17:00.858Z,5.22
2023-02-01T16:19:29.351Z,5.78
2023-02-01T16:22:06.574Z,6.65
2023-02-01T16:24:34.176Z,6.70
2023-02-01T16:27:01.500Z,8.73
2023-02-01T16:29:28.867Z,6.90
2023-02-01T16:31:56.311Z,8.43
2023-02-01T16:34:23.706Z,7.90
2023-02-01T16:36:52.697Z,5.88
2023-02-01T16:39:21.494Z,7.30
2023-02-01T16:41:48.970Z,10.13
2023-02-01T16:44:16.567Z,7.90
2023-02-01T16:46:47.405Z,9.65
2023-02-01T16:52:28.482Z,6.20
2023-02-01T16:54:56.125Z,7.97
2023-02-01T16:57:52.949Z,9.70
2023-02-01T17:00:25.697Z,9.30
2023-02-01T17:03:41.585Z,7.78
2023-02-01T17:09:30.443Z,7.20
2023-02-01T17:12:28.483Z,10.23
2023-02-01T17:14:56.260Z,8.75
2023-02-01T17:17:38.705Z,8.90
2023-02-01T17:20:07.803Z,9.15
2023-02-01T17:23:11.782Z,9.15
2023-02-01T17:29:15.031Z,9.57
2023-02-01T17:31:52.040Z,10.65
2023-02-01T17:34:32.911Z,9.70
2023-02-01T17:38:12.355Z,9.23
2023-02-01T17:40:47.400Z,7.35
2023-02-01T17:43:18.733Z,11.90
2023-02-01T17:45:56.213Z,9.38
2023-02-01T17:48:28.764Z,9.75
2023-02-01T17:51:40.458Z,9.43
2023-02-01T17:58:12.441Z,9.50
2023-02-01T18:00:30.740Z,9.50
2023-02-01T18:03:52.128Z,9.68
2023-02-01T18:06:38.806Z,10.75
2023-02-01T18:09:25.713Z,10.60
2023-02-01T18:12:43.834Z,10.02
2023-02-01T18:15:22.999Z,10.35
2023-02-01T18:18:26.484Z,12.13
2023-02-01T18:20:54.136Z,10.20
2023-02-01T18:23:34.121Z,10.77
2023-02-01T18:26:46.508Z,8.95
2023-02-01T18:30:05.939Z,9.13
2023-02-01T18:32:33.515Z,8.45
2023-02-01T18:38:03.850Z,8.02
2023-02-01T18:41:04.671Z,8.95
2023-02-01T18:44:23.733Z,7.03
2023-02-01T18:46:58.399Z,7.05
2023-02-01T18:49:25.988Z,7.15
2023-02-01T18:51:53.373Z,6.47
2023-02-01T18:54:57.555Z,7.95
2023-02-01T18:57:40.280Z,8.57
2023-02-01T19:00:10.857Z,8.13
2023-02-01T19:02:39.346Z,8.07
2023-02-01T19:05:11.636Z,7.68
2023-02-01T19:07:59.922Z,8.10
2023-02-01T19:10:31.033Z,15.23
2023-02-01T19:12:58.628Z,18.25
2023-02-01T19:15:31.678Z,23.42
2023-02-01T19:18:28.133Z,24.60
2023-02-01T19:21:07.799Z,24.23
2023-02-01T19:23:36.702Z,23.98
2023-02-01T19:26:04.260Z,30.20
2023-02-01T19:28:31.710Z,26.48
2023-02-01T19:31:15.957Z,23.85
2023-02-01T19:33:44.067Z,33.90
2023-02-01T19:36:55.795Z,22.35
2023-02-01T19:40:08.686Z,25.50
2023-02-01T19:42:43.377Z,29.25
2023-02-01T19:45:40.393Z,29.40
2023-02-01T19:48:13.266Z,28.52
2023-02-01T19:50:55.395Z,34.13
2023-02-01T19:53:26.033Z,42.03
2023-02-01T19:55:56.468Z,37.60
2023-02-01T19:58:59.447Z,39.65
2023-02-01T20:01:31.557Z,40.20
2023-02-01T20:04:07.884Z,34.22
2023-02-01T20:06:41.197Z,33.97
2023-02-01T20:09:10.590Z,39.05
2023-02-01T20:11:43.094Z,35.92
2023-02-01T20:14:12.271Z,35.17
2023-02-01T20:16:41.377Z,37.72
2023-02-01T20:19:10.825Z,34.58
2023-02-01T20:21:39.617Z,40.38
2023-02-01T20:24:07.280Z,35.63
2023-02-01T20:26:57.854Z,40.38
2023-02-01T20:29:25.935Z,36.58
2023-02-01T20:31:56.091Z,37.90
2023-02-01T20:34:24.218Z,42.38
2023-02-01T20:36:51.661Z,42.05
2023-02-01T20:39:46.928Z,46.97
2023-02-01T20:42:15.041Z,42.15
2023-02-01T20:44:42.447Z,51.75
2023-02-01T20:47:09.921Z,41.67
2023-02-01T20:49:47.596Z,40.38
2023-02-01T20:52:15.556Z,50.47
2023-02-01T20:54:43.066Z,52.58
2023-02-01T20:57:10.683Z,54.03
2023-02-01T21:02:39.511Z,53.38
2023-02-01T21:08:34.367Z,44.20
2023-02-01T21:11:12.322Z,47.05
2023-02-01T21:13:44.151Z,51.92
2023-02-01T21:16:14.129Z,41.90
2023-02-01T21:18:41.703Z,45.05
2023-02-01T21:21:12.012Z,37.47
2023-02-01T21:24:22.006Z,40.78
2023-02-01T21:27:12.271Z,44.85
2023-02-01T21:29:43.296Z,30.58
2023-02-01T21:32:10.820Z,47.35
2023-02-01T21:34:38.247Z,38.47
2023-02-01T21:37:05.578Z,29.58
2023-02-01T21:39:33.241Z,39.35
2023-02-01T21:42:23.953Z,33.13
2023-02-01T21:50:38.229Z,37.85
2023-02-01T21:53:07.014Z,31.35
2023-02-01T21:55:48.041Z,28.20
2023-02-01T21:58:15.780Z,27.73
2023-02-01T22:00:45.786Z,41.28
2023-02-01T22:03:14.394Z,36.20
2023-02-01T22:05:41.974Z,36.55
2023-02-01T22:08:09.550Z,33.35
2023-02-01T22:13:22.788Z,36.28
2023-02-01T22:15:51.151Z,76.82
2023-02-01T22:18:19.116Z,42.17
2023-02-01T22:20:46.378Z,44.90
2023-02-01T22:23:14.637Z,35.10
2023-02-01T22:25:41.926Z,44.47
2023-02-01T22:28:32.026Z,29.90
2023-02-01T22:31:02.557Z,37.08
2023-02-01T22:33:30.266Z,33.05
2023-02-01T22:35:57.531Z,36.47
2023-02-01T22:38:25.245Z,29.08
2023-02-01T22:40:56.940Z,34.35
2023-02-01T22:43:24.457Z,28.27
2023-02-01T22:45:52.734Z,25.80
2023-02-01T22:48:20.480Z,23.38
2023-02-01T22:50:47.820Z,18.92
2023-02-01T22:53:15.071Z,18.67
2023-02-01T22:55:45.333Z,19.45
2023-02-01T22:58:12.869Z,22.98
2023-02-01T23:00:40.189Z,21.08
2023-02-01T23:03:08.235Z,21.90
2023-02-01T23:05:35.526Z,16.10
2023-02-01T23:08:02.847Z,22.38
2023-02-01T23:10:30.199Z,16.35
2023-02-01T23:12:57.503Z,18.77
2023-02-01T23:15:25.149Z,13.32
2023-02-01T23:17:52.667Z,13.98
2023-02-01T23:20:20.388Z,15.65
2023-02-01T23:22:49.121Z,12.95
2023-02-01T23:25:18.545Z,16.63
2023-02-01T23:27:47.332Z,12.55
2023-02-01T23:30:16.604Z,10.60
2023-02-01T23:32:44.157Z,13.43
2023-02-01T23:35:11.446Z,12.75
2023-02-01T23:37:40.747Z,11.93
2023-02-01T23:40:08.510Z,11.23
2023-02-01T23:42:36.145Z,11.00
2023-02-01T23:45:04.707Z,13.10
2023-02-01T23:47:31.939Z,12.32
2023-02-01T23:49:59.224Z,11.18
2023-02-01T23:52:26.507Z,11.68
2023-02-01T23:54:53.751Z,11.20
2023-02-01T23:57:21.155Z,10.05
2023-02-01T23:59:48.617Z,9.93
